sensor_id;sensor_type;location;lat;lon;timestamp;pressure;altitude;pressure_sealevel;temperature;humidity
51986;BME280;38002;53.296;6.600;2022-11-13T00:04:03;103144.22;;;5.28;92.55
51986;BME280;38002;53.296;6.600;2022-11-13T00:09:03;103146.25;;;5.23;92.66
51986;BME280;38002;53.296;6.600;2022-11-13T00:14:04;103151.81;;;5.20;92.61
51986;BME280;38002;53.296;6.600;2022-11-13T00:19:04;103145.59;;;5.18;92.76
51986;BME280;38002;53.296;6.600;2022-11-13T00:24:05;103133.88;;;5.19;92.63
51986;BME280;38002;53.296;6.600;2022-11-13T00:29:06;103137.38;;;5.21;92.63
51986;BME280;38002;53.296;6.600;2022-11-13T00:34:09;103124.78;;;5.22;93.02
51986;BME280;38002;53.296;6.600;2022-11-13T00:39:09;103128.25;;;5.24;92.62
51986;BME280;38002;53.296;6.600;2022-11-13T00:44:10;103136.00;;;5.31;92.77
51986;BME280;38002;53.296;6.600;2022-11-13T00:49:10;103123.88;;;5.40;93.30
51986;BME280;38002;53.296;6.600;2022-11-13T00:54:12;103111.16;;;5.43;93.55
51986;BME280;38002;53.296;6.600;2022-11-13T00:59:12;103115.22;;;5.52;93.88
51986;BME280;38002;53.296;6.600;2022-11-13T01:04:13;103113.81;;;5.62;93.83
51986;BME280;38002;53.296;6.600;2022-11-13T01:09:14;103118.97;;;5.67;93.86
51986;BME280;38002;53.296;6.600;2022-11-13T01:14:14;103103.44;;;5.72;94.06
51986;BME280;38002;53.296;6.600;2022-11-13T01:19:16;103096.78;;;5.79;94.12
51986;BME280;38002;53.296;6.600;2022-11-13T01:24:16;103094.72;;;5.84;94.00
51986;BME280;38002;53.296;6.600;2022-11-13T01:29:17;103081.97;;;5.87;94.35
51986;BME280;38002;53.296;6.600;2022-11-13T01:34:17;103062.06;;;5.90;94.08
51986;BME280;38002;53.296;6.600;2022-11-13T01:39:17;103062.78;;;5.93;94.01
51986;BME280;38002;53.296;6.600;2022-11-13T01:44:18;103051.81;;;5.97;93.88
51986;BME280;38002;53.296;6.600;2022-11-13T01:49:33;103045.38;;;5.99;94.30
51986;BME280;38002;53.296;6.600;2022-11-13T01:54:38;103046.09;;;6.03;94.18
51986;BME280;38002;53.296;6.600;2022-11-13T01:59:44;103034.25;;;6.05;93.98
51986;BME280;38002;53.296;6.600;2022-11-13T02:04:46;103036.00;;;6.06;94.70
51986;BME280;38002;53.296;6.600;2022-11-13T02:09:52;103032.19;;;6.10;93.67
51986;BME280;38002;53.296;6.600;2022-11-13T02:14:54;103032.91;;;6.14;93.95
51986;BME280;38002;53.296;6.600;2022-11-13T02:19:58;103033.53;;;6.19;93.94
51986;BME280;38002;53.296;6.600;2022-11-13T02:25:02;103025.25;;;6.22;93.99
51986;BME280;38002;53.296;6.600;2022-11-13T02:35:37;103034.69;;;6.30;94.04
51986;BME280;38002;53.296;6.600;2022-11-13T02:40:37;103031.88;;;6.33;94.29
51986;BME280;38002;53.296;6.600;2022-11-13T02:45:38;103027.41;;;6.32;93.64
51986;BME280;38002;53.296;6.600;2022-11-13T02:50:39;103025.66;;;6.31;93.87
51986;BME280;38002;53.296;6.600;2022-11-13T02:55:40;103020.25;;;6.31;93.72
51986;BME280;38002;53.296;6.600;2022-11-13T03:00:40;103034.69;;;6.30;93.89
51986;BME280;38002;53.296;6.600;2022-11-13T03:05:41;103035.75;;;6.28;94.07
51986;BME280;38002;53.296;6.600;2022-11-13T03:10:41;103026.00;;;6.25;94.00
51986;BME280;38002;53.296;6.600;2022-11-13T03:15:42;103030.53;;;6.25;93.68
51986;BME280;38002;53.296;6.600;2022-11-13T03:20:43;103020.72;;;6.22;93.64
51986;BME280;38002;53.296;6.600;2022-11-13T03:25:43;103018.03;;;6.22;93.71
51986;BME280;38002;53.296;6.600;2022-11-13T03:30:43;103012.38;;;6.27;94.01
51986;BME280;38002;53.296;6.600;2022-11-13T03:35:44;103001.56;;;6.27;93.91
51986;BME280;38002;53.296;6.600;2022-11-13T03:40:44;103011.38;;;6.29;94.07
51986;BME280;38002;53.296;6.600;2022-11-13T03:45:45;103003.03;;;6.34;93.58
51986;BME280;38002;53.296;6.600;2022-11-13T03:50:48;103006.50;;;6.36;94.30
51986;BME280;38002;53.296;6.600;2022-11-13T03:55:49;103008.25;;;6.37;94.30
51986;BME280;38002;53.296;6.600;2022-11-13T04:00:50;103000.91;;;6.39;93.87
51986;BME280;38002;53.296;6.600;2022-11-13T04:05:50;102999.03;;;6.41;94.21
51986;BME280;38002;53.296;6.600;2022-11-13T04:10:51;102992.66;;;6.42;94.22
51986;BME280;38002;53.296;6.600;2022-11-13T04:15:51;102977.34;;;6.43;94.45
51986;BME280;38002;53.296;6.600;2022-11-13T04:20:57;102973.56;;;6.45;93.97
51986;BME280;38002;53.296;6.600;2022-11-13T04:25:58;102969.22;;;6.43;94.39
51986;BME280;38002;53.296;6.600;2022-11-13T04:30:58;102963.72;;;6.44;94.21
51986;BME280;38002;53.296;6.600;2022-11-13T04:35:59;102970.00;;;6.45;94.45
51986;BME280;38002;53.296;6.600;2022-11-13T04:41:00;102963.63;;;6.46;94.10
51986;BME280;38002;53.296;6.600;2022-11-13T04:46:19;102976.19;;;6.47;93.95
51986;BME280;38002;53.296;6.600;2022-11-13T04:51:19;102958.22;;;6.46;93.99
51986;BME280;38002;53.296;6.600;2022-11-13T04:56:20;102969.13;;;6.44;94.18
51986;BME280;38002;53.296;6.600;2022-11-13T05:01:20;102963.88;;;6.41;94.09
51986;BME280;38002;53.296;6.600;2022-11-13T05:06:21;102969.22;;;6.43;94.25
51986;BME280;38002;53.296;6.600;2022-11-13T05:11:22;102970.06;;;6.43;93.77
51986;BME280;38002;53.296;6.600;2022-11-13T05:16:22;102970.25;;;6.40;94.23
51986;BME280;38002;53.296;6.600;2022-11-13T05:21:23;102953.34;;;6.36;94.20
51986;BME280;38002;53.296;6.600;2022-11-13T05:26:23;102957.22;;;6.31;93.83
51986;BME280;38002;53.296;6.600;2022-11-13T05:31:26;102953.06;;;6.25;94.30
51986;BME280;38002;53.296;6.600;2022-11-13T05:36:26;102955.13;;;6.20;93.92
51986;BME280;38002;53.296;6.600;2022-11-13T05:41:28;102949.28;;;6.12;93.97
51986;BME280;38002;53.296;6.600;2022-11-13T05:46:29;102937.59;;;6.12;94.00
51986;BME280;38002;53.296;6.600;2022-11-13T05:51:32;102934.00;;;6.11;94.04
51986;BME280;38002;53.296;6.600;2022-11-13T05:56:34;102933.13;;;6.11;93.96
51986;BME280;38002;53.296;6.600;2022-11-13T06:01:38;102924.34;;;6.07;94.32
51986;BME280;38002;53.296;6.600;2022-11-13T06:06:38;102912.81;;;6.04;93.62
51986;BME280;38002;53.296;6.600;2022-11-13T06:11:39;102907.56;;;6.01;93.81
51986;BME280;38002;53.296;6.600;2022-11-13T06:16:39;102904.25;;;5.96;93.79
51986;BME280;38002;53.296;6.600;2022-11-13T06:21:40;102905.47;;;5.90;94.02
51986;BME280;38002;53.296;6.600;2022-11-13T06:26:40;102898.53;;;5.84;93.99
51986;BME280;38002;53.296;6.600;2022-11-13T06:31:41;102906.09;;;5.78;93.77
51986;BME280;38002;53.296;6.600;2022-11-13T06:36:41;102913.38;;;5.76;93.89
51986;BME280;38002;53.296;6.600;2022-11-13T06:41:42;102918.78;;;5.76;93.48
51986;BME280;38002;53.296;6.600;2022-11-13T06:46:42;102909.03;;;5.73;93.72
51986;BME280;38002;53.296;6.600;2022-11-13T06:51:43;102908.41;;;5.68;93.92
51986;BME280;38002;53.296;6.600;2022-11-13T06:56:43;102912.28;;;5.63;93.58
51986;BME280;38002;53.296;6.600;2022-11-13T07:01:44;102915.38;;;5.55;93.99
51986;BME280;38002;53.296;6.600;2022-11-13T07:06:45;102918.38;;;5.49;93.48
51986;BME280;38002;53.296;6.600;2022-11-13T07:11:45;102914.97;;;5.45;93.38
51986;BME280;38002;53.296;6.600;2022-11-13T07:16:46;102917.19;;;5.37;93.38
51986;BME280;38002;53.296;6.600;2022-11-13T07:21:46;102913.78;;;5.34;93.26
51986;BME280;38002;53.296;6.600;2022-11-13T07:26:46;102910.03;;;5.36;93.73
51986;BME280;38002;53.296;6.600;2022-11-13T07:31:47;102904.50;;;5.39;93.75
51986;BME280;38002;53.296;6.600;2022-11-13T07:36:47;102897.28;;;5.40;93.79
51986;BME280;38002;53.296;6.600;2022-11-13T07:41:48;102907.13;;;5.41;94.13
51986;BME280;38002;53.296;6.600;2022-11-13T07:46:48;102898.09;;;5.42;94.24
51986;BME280;38002;53.296;6.600;2022-11-13T07:51:49;102902.59;;;5.41;94.04
51986;BME280;38002;53.296;6.600;2022-11-13T07:56:49;102893.56;;;5.42;94.53
51986;BME280;38002;53.296;6.600;2022-11-13T08:01:50;102882.53;;;5.47;94.07
51986;BME280;38002;53.296;6.600;2022-11-13T08:06:50;102885.88;;;5.52;94.62
51986;BME280;38002;53.296;6.600;2022-11-13T08:11:50;102885.59;;;5.57;94.86
51986;BME280;38002;53.296;6.600;2022-11-13T08:16:51;102888.78;;;5.65;94.15
51986;BME280;38002;53.296;6.600;2022-11-13T08:21:51;102890.19;;;5.72;94.43
51986;BME280;38002;53.296;6.600;2022-11-13T08:26:52;102878.03;;;5.80;94.72
51986;BME280;38002;53.296;6.600;2022-11-13T08:31:52;102876.78;;;5.87;95.23
51986;BME280;38002;53.296;6.600;2022-11-13T08:36:53;102872.72;;;5.96;94.69
51986;BME280;38002;53.296;6.600;2022-11-13T08:41:53;102870.47;;;6.04;94.64
51986;BME280;38002;53.296;6.600;2022-11-13T08:46:53;102857.25;;;6.15;94.55
51986;BME280;38002;53.296;6.600;2022-11-13T08:51:54;102851.16;;;6.27;94.92
51986;BME280;38002;53.296;6.600;2022-11-13T08:56:55;102840.53;;;6.40;95.05
51986;BME280;38002;53.296;6.600;2022-11-13T09:01:55;102833.41;;;6.55;95.13
51986;BME280;38002;53.296;6.600;2022-11-13T09:06:58;102827.03;;;6.71;95.33
51986;BME280;38002;53.296;6.600;2022-11-13T09:11:59;102826.97;;;6.87;94.98
51986;BME280;38002;53.296;6.600;2022-11-13T09:16:59;102828.81;;;7.02;94.81
51986;BME280;38002;53.296;6.600;2022-11-13T09:22:00;102819.94;;;7.14;94.75
51986;BME280;38002;53.296;6.600;2022-11-13T09:27:00;102806.63;;;7.25;95.12
51986;BME280;38002;53.296;6.600;2022-11-13T09:32:01;102814.03;;;7.38;94.79
51986;BME280;38002;53.296;6.600;2022-11-13T09:37:01;102814.22;;;7.49;94.87
51986;BME280;38002;53.296;6.600;2022-11-13T09:42:31;102812.59;;;7.60;94.39
51986;BME280;38002;53.296;6.600;2022-11-13T09:47:38;102809.97;;;7.73;94.53
51986;BME280;38002;53.296;6.600;2022-11-13T09:52:41;102816.38;;;7.86;94.12
51986;BME280;38002;53.296;6.600;2022-11-13T09:58:05;102802.16;;;7.97;94.13
51986;BME280;38002;53.296;6.600;2022-11-13T10:03:44;102812.88;;;8.12;94.67
51986;BME280;38002;53.296;6.600;2022-11-13T10:08:58;102805.59;;;8.27;94.07
51986;BME280;38002;53.296;6.600;2022-11-13T10:19:41;102793.66;;;8.58;93.78
51986;BME280;38002;53.296;6.600;2022-11-13T10:24:44;102787.97;;;8.75;93.83
51986;BME280;38002;53.296;6.600;2022-11-13T10:29:44;102786.03;;;8.90;93.16
51986;BME280;38002;53.296;6.600;2022-11-13T10:34:49;102787.91;;;9.02;93.30
51986;BME280;38002;53.296;6.600;2022-11-13T10:39:51;102781.34;;;9.19;93.21
51986;BME280;38002;53.296;6.600;2022-11-13T10:44:56;102775.50;;;9.37;93.03
51986;BME280;38002;53.296;6.600;2022-11-13T10:50:09;102773.88;;;9.60;92.64
51986;BME280;38002;53.296;6.600;2022-11-13T11:00:33;102756.50;;;10.24;92.04
51986;BME280;38002;53.296;6.600;2022-11-13T11:05:34;102748.03;;;10.76;92.43
51986;BME280;38002;53.296;6.600;2022-11-13T11:10:35;102737.38;;;11.08;91.63
51986;BME280;38002;53.296;6.600;2022-11-13T11:15:58;102726.16;;;11.24;90.92
51986;BME280;38002;53.296;6.600;2022-11-13T11:21:06;102717.63;;;11.39;90.56
51986;BME280;38002;53.296;6.600;2022-11-13T11:32:02;102710.38;;;11.85;89.13
51986;BME280;38002;53.296;6.600;2022-11-13T11:42:27;102694.47;;;12.12;88.88
51986;BME280;38002;53.296;6.600;2022-11-13T11:47:31;102694.53;;;12.21;88.70
51986;BME280;38002;53.296;6.600;2022-11-13T12:08:33;102669.31;;;12.72;86.36
51986;BME280;38002;53.296;6.600;2022-11-13T12:13:49;102665.84;;;12.91;87.22
51986;BME280;38002;53.296;6.600;2022-11-13T12:19:04;102654.28;;;13.19;86.24
51986;BME280;38002;53.296;6.600;2022-11-13T12:29:47;102638.06;;;13.57;85.79
51986;BME280;38002;53.296;6.600;2022-11-13T12:34:55;102612.47;;;13.58;86.40
51986;BME280;38002;53.296;6.600;2022-11-13T12:40:04;102607.25;;;13.55;86.17
51986;BME280;38002;53.296;6.600;2022-11-13T12:50:34;102599.94;;;13.56;85.74
51986;BME280;38002;53.296;6.600;2022-11-13T12:55:38;102592.59;;;13.56;86.22
51986;BME280;38002;53.296;6.600;2022-11-13T13:00:40;102597.78;;;13.59;85.59
51986;BME280;38002;53.296;6.600;2022-11-13T13:06:02;102584.84;;;13.61;84.79
51986;BME280;38002;53.296;6.600;2022-11-13T13:16:05;102585.16;;;13.78;84.59
51986;BME280;38002;53.296;6.600;2022-11-13T13:21:10;102583.00;;;13.81;85.20
51986;BME280;38002;53.296;6.600;2022-11-13T13:26:22;102578.88;;;13.96;84.08
51986;BME280;38002;53.296;6.600;2022-11-13T13:36:48;102562.63;;;14.14;78.00
51986;BME280;38002;53.296;6.600;2022-11-13T13:46:59;102556.97;;;13.87;83.49
51986;BME280;38002;53.296;6.600;2022-11-13T13:51:59;102560.66;;;13.57;83.65
51986;BME280;38002;53.296;6.600;2022-11-13T13:57:00;102560.84;;;13.25;83.78
51986;BME280;38002;53.296;6.600;2022-11-13T14:02:11;102560.97;;;12.93;84.06
51986;BME280;38002;53.296;6.600;2022-11-13T14:07:31;102553.63;;;12.63;83.75
51986;BME280;38002;53.296;6.600;2022-11-13T14:12:32;102555.34;;;12.44;84.52
51986;BME280;38002;53.296;6.600;2022-11-13T14:17:33;102552.72;;;12.21;84.71
51986;BME280;38002;53.296;6.600;2022-11-13T14:22:34;102545.97;;;12.05;85.03
51986;BME280;38002;53.296;6.600;2022-11-13T14:27:36;102540.97;;;11.89;85.47
51986;BME280;38002;53.296;6.600;2022-11-13T14:32:40;102541.63;;;11.70;85.13
51986;BME280;38002;53.296;6.600;2022-11-13T14:37:44;102529.41;;;11.54;85.53
51986;BME280;38002;53.296;6.600;2022-11-13T14:42:47;102535.38;;;11.36;85.39
51986;BME280;38002;53.296;6.600;2022-11-13T14:48:01;102533.06;;;11.21;85.70
51986;BME280;38002;53.296;6.600;2022-11-13T14:53:07;102524.88;;;11.10;85.87
51986;BME280;38002;53.296;6.600;2022-11-13T14:58:11;102522.06;;;11.00;85.99
51986;BME280;38002;53.296;6.600;2022-11-13T15:03:13;102523.66;;;10.91;86.30
51986;BME280;38002;53.296;6.600;2022-11-13T15:08:13;102527.25;;;10.81;85.93
51986;BME280;38002;53.296;6.600;2022-11-13T15:13:15;102523.53;;;10.71;86.43
51986;BME280;38002;53.296;6.600;2022-11-13T15:18:17;102516.34;;;10.59;86.44
51986;BME280;38002;53.296;6.600;2022-11-13T15:23:18;102507.06;;;10.39;85.09
51986;BME280;38002;53.296;6.600;2022-11-13T15:28:22;102497.88;;;10.29;86.35
51986;BME280;38002;53.296;6.600;2022-11-13T15:33:22;102495.47;;;10.13;86.34
51986;BME280;38002;53.296;6.600;2022-11-13T15:38:23;102484.03;;;9.97;86.41
51986;BME280;38002;53.296;6.600;2022-11-13T15:43:23;102490.41;;;9.85;86.59
51986;BME280;38002;53.296;6.600;2022-11-13T15:48:23;102483.97;;;9.75;87.40
51986;BME280;38002;53.296;6.600;2022-11-13T15:53:24;102482.06;;;9.64;87.21
51986;BME280;38002;53.296;6.600;2022-11-13T15:58:24;102482.50;;;9.58;86.83
51986;BME280;38002;53.296;6.600;2022-11-13T16:03:25;102481.34;;;9.49;86.80
51986;BME280;38002;53.296;6.600;2022-11-13T16:08:25;102477.47;;;9.41;87.08
51986;BME280;38002;53.296;6.600;2022-11-13T16:13:26;102469.28;;;9.30;86.81
51986;BME280;38002;53.296;6.600;2022-11-13T16:18:29;102466.28;;;9.22;87.13
51986;BME280;38002;53.296;6.600;2022-11-13T16:23:30;102469.69;;;9.13;87.80
51986;BME280;38002;53.296;6.600;2022-11-13T16:28:30;102466.91;;;9.01;87.36
51986;BME280;38002;53.296;6.600;2022-11-13T16:33:31;102464.97;;;8.91;86.93
51986;BME280;38002;53.296;6.600;2022-11-13T16:38:31;102461.41;;;8.78;87.17
51986;BME280;38002;53.296;6.600;2022-11-13T16:43:32;102453.19;;;8.67;87.69
51986;BME280;38002;53.296;6.600;2022-11-13T16:48:32;102457.44;;;8.58;87.66
51986;BME280;38002;53.296;6.600;2022-11-13T16:53:33;102462.53;;;8.50;87.66
51986;BME280;38002;53.296;6.600;2022-11-13T16:58:33;102460.25;;;8.44;87.48
51986;BME280;38002;53.296;6.600;2022-11-13T17:03:35;102456.25;;;8.37;87.94
51986;BME280;38002;53.296;6.600;2022-11-13T17:08:35;102465.00;;;8.28;87.71
51986;BME280;38002;53.296;6.600;2022-11-13T17:13:35;102464.88;;;8.16;87.54
51986;BME280;38002;53.296;6.600;2022-11-13T17:18:36;102450.25;;;8.06;87.48
51986;BME280;38002;53.296;6.600;2022-11-13T17:23:36;102439.84;;;8.00;87.68
51986;BME280;38002;53.296;6.600;2022-11-13T17:28:37;102436.69;;;7.94;87.66
51986;BME280;38002;53.296;6.600;2022-11-13T17:33:37;102427.25;;;7.87;87.82
51986;BME280;38002;53.296;6.600;2022-11-13T17:38:39;102421.41;;;7.80;87.53
51986;BME280;38002;53.296;6.600;2022-11-13T17:43:41;102409.16;;;7.74;87.67
51986;BME280;38002;53.296;6.600;2022-11-13T17:48:42;102408.69;;;7.68;88.10
51986;BME280;38002;53.296;6.600;2022-11-13T17:53:43;102402.19;;;7.58;87.96
51986;BME280;38002;53.296;6.600;2022-11-13T17:58:45;102413.97;;;7.57;87.99
51986;BME280;38002;53.296;6.600;2022-11-13T18:03:46;102403.56;;;7.51;88.25
51986;BME280;38002;53.296;6.600;2022-11-13T18:08:48;102399.75;;;7.41;88.50
51986;BME280;38002;53.296;6.600;2022-11-13T18:13:49;102402.56;;;7.39;88.16
51986;BME280;38002;53.296;6.600;2022-11-13T18:18:52;102396.59;;;7.34;88.40
51986;BME280;38002;53.296;6.600;2022-11-13T18:24:04;102399.28;;;7.34;88.23
51986;BME280;38002;53.296;6.600;2022-11-13T18:29:04;102401.25;;;7.32;89.21
51986;BME280;38002;53.296;6.600;2022-11-13T18:34:05;102402.53;;;7.26;88.80
51986;BME280;38002;53.296;6.600;2022-11-13T18:39:08;102392.97;;;7.21;89.06
51986;BME280;38002;53.296;6.600;2022-11-13T18:44:08;102402.38;;;7.15;89.44
51986;BME280;38002;53.296;6.600;2022-11-13T18:49:09;102396.41;;;7.10;88.72
51986;BME280;38002;53.296;6.600;2022-11-13T18:54:09;102392.34;;;7.03;89.02
51986;BME280;38002;53.296;6.600;2022-11-13T18:59:11;102387.59;;;6.94;89.26
51986;BME280;38002;53.296;6.600;2022-11-13T19:04:12;102387.97;;;6.88;89.43
51986;BME280;38002;53.296;6.600;2022-11-13T19:09:15;102391.84;;;6.84;89.45
51986;BME280;38002;53.296;6.600;2022-11-13T19:14:17;102393.91;;;6.80;89.14
51986;BME280;38002;53.296;6.600;2022-11-13T19:19:20;102384.03;;;6.79;89.21
51986;BME280;38002;53.296;6.600;2022-11-13T19:24:21;102392.47;;;6.75;88.93
51986;BME280;38002;53.296;6.600;2022-11-13T19:29:21;102381.06;;;6.70;89.28
51986;BME280;38002;53.296;6.600;2022-11-13T19:34:22;102382.25;;;6.66;89.31
51986;BME280;38002;53.296;6.600;2022-11-13T19:39:22;102379.84;;;6.61;89.45
51986;BME280;38002;53.296;6.600;2022-11-13T19:44:24;102370.47;;;6.53;89.58
51986;BME280;38002;53.296;6.600;2022-11-13T19:49:25;102364.63;;;6.46;89.16
51986;BME280;38002;53.296;6.600;2022-11-13T19:54:25;102358.06;;;6.36;90.02
51986;BME280;38002;53.296;6.600;2022-11-13T19:59:26;102359.53;;;6.27;90.11
51986;BME280;38002;53.296;6.600;2022-11-13T20:04:26;102361.84;;;6.19;90.56
51986;BME280;38002;53.296;6.600;2022-11-13T20:09:27;102360.31;;;6.15;91.20
51986;BME280;38002;53.296;6.600;2022-11-13T20:14:28;102367.75;;;6.12;91.10
51986;BME280;38002;53.296;6.600;2022-11-13T20:19:28;102370.53;;;6.10;91.50
51986;BME280;38002;53.296;6.600;2022-11-13T20:24:29;102365.69;;;6.01;90.82
51986;BME280;38002;53.296;6.600;2022-11-13T20:29:29;102361.94;;;5.89;91.17
51986;BME280;38002;53.296;6.600;2022-11-13T20:34:32;102362.19;;;5.85;91.34
51986;BME280;38002;53.296;6.600;2022-11-13T20:39:33;102357.88;;;5.82;91.46
51986;BME280;38002;53.296;6.600;2022-11-13T20:44:33;102345.63;;;5.77;91.53
51986;BME280;38002;53.296;6.600;2022-11-13T20:49:34;102345.09;;;5.70;91.65
51986;BME280;38002;53.296;6.600;2022-11-13T20:54:35;102338.28;;;5.65;91.50
51986;BME280;38002;53.296;6.600;2022-11-13T20:59:35;102335.00;;;5.60;91.41
51986;BME280;38002;53.296;6.600;2022-11-13T21:04:36;102343.16;;;5.58;92.05
51986;BME280;38002;53.296;6.600;2022-11-13T21:09:36;102337.69;;;5.60;91.63
51986;BME280;38002;53.296;6.600;2022-11-13T21:14:37;102323.13;;;5.62;92.20
51986;BME280;38002;53.296;6.600;2022-11-13T21:19:37;102315.03;;;5.62;92.16
51986;BME280;38002;53.296;6.600;2022-11-13T21:24:37;102315.03;;;5.62;92.42
51986;BME280;38002;53.296;6.600;2022-11-13T21:29:38;102319.66;;;5.60;92.59
51986;BME280;38002;53.296;6.600;2022-11-13T21:34:38;102313.19;;;5.63;93.08
51986;BME280;38002;53.296;6.600;2022-11-13T21:39:39;102315.81;;;5.64;92.36
51986;BME280;38002;53.296;6.600;2022-11-13T21:44:39;102300.31;;;5.68;92.51
51986;BME280;38002;53.296;6.600;2022-11-13T21:49:40;102292.88;;;5.71;92.74
51986;BME280;38002;53.296;6.600;2022-11-13T21:54:41;102305.28;;;5.74;92.76
51986;BME280;38002;53.296;6.600;2022-11-13T21:59:41;102301.47;;;5.78;92.83
51986;BME280;38002;53.296;6.600;2022-11-13T22:04:42;102299.53;;;5.80;93.23
51986;BME280;38002;53.296;6.600;2022-11-13T22:09:42;102299.31;;;5.83;92.80
51986;BME280;38002;53.296;6.600;2022-11-13T22:14:42;102285.66;;;5.86;93.49
51986;BME280;38002;53.296;6.600;2022-11-13T22:19:43;102276.53;;;5.88;93.61
51986;BME280;38002;53.296;6.600;2022-11-13T22:24:43;102267.47;;;5.89;93.67
51986;BME280;38002;53.296;6.600;2022-11-13T22:29:44;102260.03;;;5.93;93.69
51986;BME280;38002;53.296;6.600;2022-11-13T22:34:44;102248.06;;;5.97;93.21
51986;BME280;38002;53.296;6.600;2022-11-13T22:39:45;102257.63;;;6.03;93.71
51986;BME280;38002;53.296;6.600;2022-11-13T22:44:45;102252.00;;;6.06;94.15
51986;BME280;38002;53.296;6.600;2022-11-13T22:49:45;102249.00;;;6.10;94.19
51986;BME280;38002;53.296;6.600;2022-11-13T22:54:46;102242.44;;;6.14;93.88
51986;BME280;38002;53.296;6.600;2022-11-13T22:59:46;102236.84;;;6.17;93.79
51986;BME280;38002;53.296;6.600;2022-11-13T23:04:47;102222.38;;;6.18;94.28
51986;BME280;38002;53.296;6.600;2022-11-13T23:09:47;102221.19;;;6.22;93.94
51986;BME280;38002;53.296;6.600;2022-11-13T23:14:47;102218.09;;;6.28;93.67
51986;BME280;38002;53.296;6.600;2022-11-13T23:19:48;102200.81;;;6.31;93.52
51986;BME280;38002;53.296;6.600;2022-11-13T23:24:48;102197.06;;;6.33;93.48
51986;BME280;38002;53.296;6.600;2022-11-13T23:29:49;102202.16;;;6.38;93.45
51986;BME280;38002;53.296;6.600;2022-11-13T23:34:49;102187.56;;;6.41;93.39
51986;BME280;38002;53.296;6.600;2022-11-13T23:39:50;102188.22;;;6.44;93.25
51986;BME280;38002;53.296;6.600;2022-11-13T23:44:50;102182.72;;;6.46;93.45
51986;BME280;38002;53.296;6.600;2022-11-13T23:49:50;102176.16;;;6.50;93.39
51986;BME280;38002;53.296;6.600;2022-11-13T23:54:51;102172.34;;;6.52;93.36
51986;BME280;38002;53.296;6.600;2022-11-13T23:59:51;102171.38;;;6.53;93.55
